sensor_id;sensor_type;location;lat;lon;timestamp;P1;durP1;ratioP1;P2;durP2;ratioP2
37495;SDS011;23346;52.088;4.746;2022-07-23T00:00:16;14.07;;;8.67;;
37495;SDS011;23346;52.088;4.746;2022-07-23T00:02:42;15.43;;;8.60;;
37495;SDS011;23346;52.088;4.746;2022-07-23T00:05:09;15.53;;;8.70;;
37495;SDS011;23346;52.088;4.746;2022-07-23T00:07:35;15.27;;;7.97;;
37495;SDS011;23346;52.088;4.746;2022-07-23T00:10:01;15.80;;;8.53;;
37495;SDS011;23346;52.088;4.746;2022-07-23T00:12:27;16.03;;;9.53;;
37495;SDS011;23346;52.088;4.746;2022-07-23T00:14:53;19.60;;;8.67;;
37495;SDS011;23346;52.088;4.746;2022-07-23T00:17:19;17.57;;;9.23;;
37495;SDS011;23346;52.088;4.746;2022-07-23T00:19:45;18.33;;;9.13;;
37495;SDS011;23346;52.088;4.746;2022-07-23T00:22:11;16.70;;;9.20;;
37495;SDS011;23346;52.088;4.746;2022-07-23T00:24:37;15.30;;;9.00;;
37495;SDS011;23346;52.088;4.746;2022-07-23T00:27:03;19.13;;;9.87;;
37495;SDS011;23346;52.088;4.746;2022-07-23T00:29:29;20.27;;;9.93;;
37495;SDS011;23346;52.088;4.746;2022-07-23T00:31:55;20.60;;;10.67;;
37495;SDS011;23346;52.088;4.746;2022-07-23T00:34:21;17.43;;;9.87;;
37495;SDS011;23346;52.088;4.746;2022-07-23T00:36:47;23.30;;;10.93;;
37495;SDS011;23346;52.088;4.746;2022-07-23T00:39:13;15.47;;;9.33;;
37495;SDS011;23346;52.088;4.746;2022-07-23T00:41:39;19.30;;;10.63;;
37495;SDS011;23346;52.088;4.746;2022-07-23T00:44:21;22.03;;;9.93;;
37495;SDS011;23346;52.088;4.746;2022-07-23T00:46:49;20.10;;;10.03;;
37495;SDS011;23346;52.088;4.746;2022-07-23T00:49:17;18.00;;;9.93;;
37495;SDS011;23346;52.088;4.746;2022-07-23T00:51:44;19.50;;;10.13;;
37495;SDS011;23346;52.088;4.746;2022-07-23T00:54:10;20.73;;;10.50;;
37495;SDS011;23346;52.088;4.746;2022-07-23T00:56:36;26.23;;;10.20;;
37495;SDS011;23346;52.088;4.746;2022-07-23T00:59:03;18.83;;;9.90;;
37495;SDS011;23346;52.088;4.746;2022-07-23T01:01:29;19.53;;;11.07;;
37495;SDS011;23346;52.088;4.746;2022-07-23T01:03:55;20.57;;;10.73;;
37495;SDS011;23346;52.088;4.746;2022-07-23T01:06:21;17.17;;;10.03;;
37495;SDS011;23346;52.088;4.746;2022-07-23T01:08:47;25.00;;;10.13;;
37495;SDS011;23346;52.088;4.746;2022-07-23T01:11:13;24.87;;;10.83;;
37495;SDS011;23346;52.088;4.746;2022-07-23T01:13:42;21.57;;;10.70;;
37495;SDS011;23346;52.088;4.746;2022-07-23T01:16:08;25.60;;;11.40;;
37495;SDS011;23346;52.088;4.746;2022-07-23T01:18:34;19.47;;;10.53;;
37495;SDS011;23346;52.088;4.746;2022-07-23T01:21:00;25.63;;;11.37;;
37495;SDS011;23346;52.088;4.746;2022-07-23T01:23:26;19.10;;;10.53;;
37495;SDS011;23346;52.088;4.746;2022-07-23T01:25:52;26.83;;;12.03;;
37495;SDS011;23346;52.088;4.746;2022-07-23T01:28:18;24.23;;;11.30;;
37495;SDS011;23346;52.088;4.746;2022-07-23T01:30:45;24.53;;;10.70;;
37495;SDS011;23346;52.088;4.746;2022-07-23T01:33:11;22.13;;;10.90;;
37495;SDS011;23346;52.088;4.746;2022-07-23T01:35:37;23.03;;;11.10;;
37495;SDS011;23346;52.088;4.746;2022-07-23T01:38:03;20.30;;;10.57;;
37495;SDS011;23346;52.088;4.746;2022-07-23T01:40:29;20.90;;;11.03;;
37495;SDS011;23346;52.088;4.746;2022-07-23T01:42:55;24.60;;;10.70;;
37495;SDS011;23346;52.088;4.746;2022-07-23T01:45:21;19.57;;;11.63;;
37495;SDS011;23346;52.088;4.746;2022-07-23T01:47:47;22.70;;;10.73;;
37495;SDS011;23346;52.088;4.746;2022-07-23T01:50:13;24.47;;;10.67;;
37495;SDS011;23346;52.088;4.746;2022-07-23T01:52:39;21.10;;;9.60;;
37495;SDS011;23346;52.088;4.746;2022-07-23T01:55:06;19.90;;;10.20;;
37495;SDS011;23346;52.088;4.746;2022-07-23T01:57:32;20.83;;;10.83;;
37495;SDS011;23346;52.088;4.746;2022-07-23T01:59:58;22.90;;;10.27;;
37495;SDS011;23346;52.088;4.746;2022-07-23T02:02:24;25.57;;;11.00;;
37495;SDS011;23346;52.088;4.746;2022-07-23T02:04:50;19.87;;;10.77;;
37495;SDS011;23346;52.088;4.746;2022-07-23T02:07:16;17.70;;;10.30;;
37495;SDS011;23346;52.088;4.746;2022-07-23T02:09:42;19.20;;;9.83;;
37495;SDS011;23346;52.088;4.746;2022-07-23T02:12:08;20.73;;;9.97;;
37495;SDS011;23346;52.088;4.746;2022-07-23T02:14:34;20.00;;;10.10;;
37495;SDS011;23346;52.088;4.746;2022-07-23T02:17:00;29.83;;;11.53;;
37495;SDS011;23346;52.088;4.746;2022-07-23T02:19:26;25.87;;;11.23;;
37495;SDS011;23346;52.088;4.746;2022-07-23T02:21:52;23.73;;;10.47;;
37495;SDS011;23346;52.088;4.746;2022-07-23T02:24:19;24.47;;;11.47;;
37495;SDS011;23346;52.088;4.746;2022-07-23T02:26:45;22.17;;;10.30;;
37495;SDS011;23346;52.088;4.746;2022-07-23T02:29:11;21.77;;;10.63;;
37495;SDS011;23346;52.088;4.746;2022-07-23T02:31:37;25.20;;;10.67;;
37495;SDS011;23346;52.088;4.746;2022-07-23T02:34:03;27.73;;;11.10;;
37495;SDS011;23346;52.088;4.746;2022-07-23T02:36:30;25.73;;;11.63;;
37495;SDS011;23346;52.088;4.746;2022-07-23T02:38:56;25.13;;;11.67;;
37495;SDS011;23346;52.088;4.746;2022-07-23T02:41:22;24.90;;;12.00;;
37495;SDS011;23346;52.088;4.746;2022-07-23T02:43:48;23.67;;;12.03;;
37495;SDS011;23346;52.088;4.746;2022-07-23T02:46:14;28.57;;;11.87;;
37495;SDS011;23346;52.088;4.746;2022-07-23T02:48:40;25.40;;;12.37;;
37495;SDS011;23346;52.088;4.746;2022-07-23T02:51:06;27.07;;;13.33;;
37495;SDS011;23346;52.088;4.746;2022-07-23T02:53:32;28.27;;;13.73;;
37495;SDS011;23346;52.088;4.746;2022-07-23T02:55:58;26.03;;;11.97;;
37495;SDS011;23346;52.088;4.746;2022-07-23T02:58:24;35.03;;;13.20;;
37495;SDS011;23346;52.088;4.746;2022-07-23T03:00:51;32.30;;;13.63;;
37495;SDS011;23346;52.088;4.746;2022-07-23T03:03:17;36.83;;;13.63;;
37495;SDS011;23346;52.088;4.746;2022-07-23T03:05:43;28.97;;;13.73;;
37495;SDS011;23346;52.088;4.746;2022-07-23T03:08:09;30.17;;;13.13;;
37495;SDS011;23346;52.088;4.746;2022-07-23T03:10:35;38.27;;;14.63;;
37495;SDS011;23346;52.088;4.746;2022-07-23T03:13:01;36.53;;;14.30;;
37495;SDS011;23346;52.088;4.746;2022-07-23T03:15:27;31.00;;;14.50;;
37495;SDS011;23346;52.088;4.746;2022-07-23T03:17:53;33.77;;;13.73;;
37495;SDS011;23346;52.088;4.746;2022-07-23T03:20:19;31.60;;;13.73;;
37495;SDS011;23346;52.088;4.746;2022-07-23T03:22:45;32.27;;;14.10;;
37495;SDS011;23346;52.088;4.746;2022-07-23T03:25:11;31.97;;;13.77;;
37495;SDS011;23346;52.088;4.746;2022-07-23T03:27:37;38.90;;;14.27;;
37495;SDS011;23346;52.088;4.746;2022-07-23T03:30:03;32.03;;;14.37;;
37495;SDS011;23346;52.088;4.746;2022-07-23T03:32:30;31.13;;;13.07;;
37495;SDS011;23346;52.088;4.746;2022-07-23T03:34:56;32.37;;;14.20;;
37495;SDS011;23346;52.088;4.746;2022-07-23T03:37:22;33.10;;;13.87;;
37495;SDS011;23346;52.088;4.746;2022-07-23T03:39:48;34.27;;;13.73;;
37495;SDS011;23346;52.088;4.746;2022-07-23T03:42:14;28.80;;;13.03;;
37495;SDS011;23346;52.088;4.746;2022-07-23T03:44:40;26.37;;;13.30;;
37495;SDS011;23346;52.088;4.746;2022-07-23T03:47:06;29.97;;;13.80;;
37495;SDS011;23346;52.088;4.746;2022-07-23T03:49:32;26.27;;;12.53;;
37495;SDS011;23346;52.088;4.746;2022-07-23T03:51:59;25.70;;;12.47;;
37495;SDS011;23346;52.088;4.746;2022-07-23T03:54:25;27.57;;;12.13;;
37495;SDS011;23346;52.088;4.746;2022-07-23T03:56:51;34.90;;;13.30;;
37495;SDS011;23346;52.088;4.746;2022-07-23T03:59:17;37.10;;;13.90;;
37495;SDS011;23346;52.088;4.746;2022-07-23T04:01:43;36.83;;;14.53;;
37495;SDS011;23346;52.088;4.746;2022-07-23T04:04:09;30.87;;;14.00;;
37495;SDS011;23346;52.088;4.746;2022-07-23T04:06:35;31.87;;;13.13;;
37495;SDS011;23346;52.088;4.746;2022-07-23T04:09:02;31.97;;;13.03;;
37495;SDS011;23346;52.088;4.746;2022-07-23T04:11:28;30.67;;;13.50;;
37495;SDS011;23346;52.088;4.746;2022-07-23T04:13:54;27.80;;;12.97;;
37495;SDS011;23346;52.088;4.746;2022-07-23T04:16:20;33.40;;;13.30;;
37495;SDS011;23346;52.088;4.746;2022-07-23T04:18:46;33.53;;;13.73;;
37495;SDS011;23346;52.088;4.746;2022-07-23T04:21:12;41.60;;;15.30;;
37495;SDS011;23346;52.088;4.746;2022-07-23T04:23:38;34.07;;;15.07;;
37495;SDS011;23346;52.088;4.746;2022-07-23T04:26:04;36.13;;;15.80;;
37495;SDS011;23346;52.088;4.746;2022-07-23T04:28:30;38.17;;;16.00;;
37495;SDS011;23346;52.088;4.746;2022-07-23T04:30:56;38.60;;;16.40;;
37495;SDS011;23346;52.088;4.746;2022-07-23T04:33:22;37.23;;;16.47;;
37495;SDS011;23346;52.088;4.746;2022-07-23T04:35:48;33.87;;;15.40;;
37495;SDS011;23346;52.088;4.746;2022-07-23T04:38:14;38.60;;;14.03;;
37495;SDS011;23346;52.088;4.746;2022-07-23T04:40:40;39.63;;;14.83;;
37495;SDS011;23346;52.088;4.746;2022-07-23T04:43:06;33.33;;;15.60;;
37495;SDS011;23346;52.088;4.746;2022-07-23T04:45:32;34.43;;;14.73;;
37495;SDS011;23346;52.088;4.746;2022-07-23T04:47:58;38.17;;;15.37;;
37495;SDS011;23346;52.088;4.746;2022-07-23T04:50:24;35.20;;;15.17;;
37495;SDS011;23346;52.088;4.746;2022-07-23T04:52:50;36.03;;;15.07;;
37495;SDS011;23346;52.088;4.746;2022-07-23T04:55:16;34.47;;;15.40;;
37495;SDS011;23346;52.088;4.746;2022-07-23T04:57:42;38.40;;;16.17;;
37495;SDS011;23346;52.088;4.746;2022-07-23T05:00:09;38.43;;;16.07;;
37495;SDS011;23346;52.088;4.746;2022-07-23T05:02:35;34.90;;;14.53;;
37495;SDS011;23346;52.088;4.746;2022-07-23T05:05:01;36.60;;;15.53;;
37495;SDS011;23346;52.088;4.746;2022-07-23T05:07:27;38.27;;;15.70;;
37495;SDS011;23346;52.088;4.746;2022-07-23T05:09:53;31.50;;;14.57;;
37495;SDS011;23346;52.088;4.746;2022-07-23T05:12:19;29.60;;;14.27;;
37495;SDS011;23346;52.088;4.746;2022-07-23T05:14:45;32.83;;;16.37;;
37495;SDS011;23346;52.088;4.746;2022-07-23T05:17:11;35.80;;;15.97;;
37495;SDS011;23346;52.088;4.746;2022-07-23T05:19:37;36.27;;;14.93;;
37495;SDS011;23346;52.088;4.746;2022-07-23T05:22:03;28.83;;;14.07;;
37495;SDS011;23346;52.088;4.746;2022-07-23T05:24:29;25.63;;;13.27;;
37495;SDS011;23346;52.088;4.746;2022-07-23T05:26:55;22.47;;;13.50;;
37495;SDS011;23346;52.088;4.746;2022-07-23T05:29:21;20.03;;;12.20;;
37495;SDS011;23346;52.088;4.746;2022-07-23T05:31:47;20.13;;;11.77;;
37495;SDS011;23346;52.088;4.746;2022-07-23T05:34:13;20.37;;;12.37;;
37495;SDS011;23346;52.088;4.746;2022-07-23T05:36:39;20.93;;;10.83;;
37495;SDS011;23346;52.088;4.746;2022-07-23T05:39:05;19.67;;;10.33;;
37495;SDS011;23346;52.088;4.746;2022-07-23T05:41:31;22.50;;;9.53;;
37495;SDS011;23346;52.088;4.746;2022-07-23T05:43:57;9.77;;;7.87;;
37495;SDS011;23346;52.088;4.746;2022-07-23T05:46:23;12.60;;;7.07;;
37495;SDS011;23346;52.088;4.746;2022-07-23T05:48:49;11.23;;;6.87;;
37495;SDS011;23346;52.088;4.746;2022-07-23T05:51:19;9.80;;;6.60;;
37495;SDS011;23346;52.088;4.746;2022-07-23T05:53:45;9.00;;;7.20;;
37495;SDS011;23346;52.088;4.746;2022-07-23T05:56:12;9.47;;;7.60;;
37495;SDS011;23346;52.088;4.746;2022-07-23T05:58:38;11.97;;;7.57;;
37495;SDS011;23346;52.088;4.746;2022-07-23T06:01:04;14.20;;;7.73;;
37495;SDS011;23346;52.088;4.746;2022-07-23T06:03:30;10.90;;;6.90;;
37495;SDS011;23346;52.088;4.746;2022-07-23T06:05:56;11.27;;;7.33;;
37495;SDS011;23346;52.088;4.746;2022-07-23T06:08:22;13.20;;;8.37;;
37495;SDS011;23346;52.088;4.746;2022-07-23T06:10:48;10.93;;;8.17;;
37495;SDS011;23346;52.088;4.746;2022-07-23T06:13:14;11.97;;;7.30;;
37495;SDS011;23346;52.088;4.746;2022-07-23T06:15:40;12.87;;;7.80;;
37495;SDS011;23346;52.088;4.746;2022-07-23T06:18:06;17.30;;;8.33;;
37495;SDS011;23346;52.088;4.746;2022-07-23T06:20:32;14.40;;;7.80;;
37495;SDS011;23346;52.088;4.746;2022-07-23T06:22:58;13.98;;;7.78;;
37495;SDS011;23346;52.088;4.746;2022-07-23T06:25:24;12.02;;;6.93;;
37495;SDS011;23346;52.088;4.746;2022-07-23T06:27:50;12.23;;;7.68;;
37495;SDS011;23346;52.088;4.746;2022-07-23T06:30:16;12.52;;;6.47;;
37495;SDS011;23346;52.088;4.746;2022-07-23T06:32:43;8.38;;;6.82;;
37495;SDS011;23346;52.088;4.746;2022-07-23T06:35:09;9.38;;;7.30;;
37495;SDS011;23346;52.088;4.746;2022-07-23T06:37:35;12.25;;;6.88;;
37495;SDS011;23346;52.088;4.746;2022-07-23T06:40:02;10.65;;;7.65;;
37495;SDS011;23346;52.088;4.746;2022-07-23T06:42:28;15.95;;;6.65;;
37495;SDS011;23346;52.088;4.746;2022-07-23T06:44:54;9.23;;;5.63;;
37495;SDS011;23346;52.088;4.746;2022-07-23T06:47:20;11.60;;;5.82;;
37495;SDS011;23346;52.088;4.746;2022-07-23T06:49:46;11.57;;;6.38;;
37495;SDS011;23346;52.088;4.746;2022-07-23T06:52:12;6.57;;;5.35;;
37495;SDS011;23346;52.088;4.746;2022-07-23T06:54:38;6.65;;;4.57;;
37495;SDS011;23346;52.088;4.746;2022-07-23T06:57:04;7.88;;;4.35;;
37495;SDS011;23346;52.088;4.746;2022-07-23T06:59:30;10.95;;;5.00;;
37495;SDS011;23346;52.088;4.746;2022-07-23T07:01:58;7.00;;;3.83;;
37495;SDS011;23346;52.088;4.746;2022-07-23T07:04:24;5.55;;;2.30;;
37495;SDS011;23346;52.088;4.746;2022-07-23T07:06:50;4.53;;;3.67;;
37495;SDS011;23346;52.088;4.746;2022-07-23T07:09:16;3.78;;;2.10;;
37495;SDS011;23346;52.088;4.746;2022-07-23T07:11:42;6.80;;;2.13;;
37495;SDS011;23346;52.088;4.746;2022-07-23T07:14:08;6.95;;;1.80;;
37495;SDS011;23346;52.088;4.746;2022-07-23T07:16:34;5.65;;;1.98;;
37495;SDS011;23346;52.088;4.746;2022-07-23T07:19:00;5.78;;;1.75;;
37495;SDS011;23346;52.088;4.746;2022-07-23T07:21:26;3.70;;;2.15;;
37495;SDS011;23346;52.088;4.746;2022-07-23T07:23:52;4.60;;;1.80;;
37495;SDS011;23346;52.088;4.746;2022-07-23T07:26:18;6.65;;;1.40;;
37495;SDS011;23346;52.088;4.746;2022-07-23T07:28:44;4.00;;;1.35;;
37495;SDS011;23346;52.088;4.746;2022-07-23T07:31:10;3.80;;;1.30;;
37495;SDS011;23346;52.088;4.746;2022-07-23T07:33:36;4.72;;;1.33;;
37495;SDS011;23346;52.088;4.746;2022-07-23T07:36:03;2.17;;;1.20;;
37495;SDS011;23346;52.088;4.746;2022-07-23T07:38:29;1.20;;;0.82;;
37495;SDS011;23346;52.088;4.746;2022-07-23T07:40:55;2.13;;;0.93;;
37495;SDS011;23346;52.088;4.746;2022-07-23T07:43:21;3.92;;;1.05;;
37495;SDS011;23346;52.088;4.746;2022-07-23T07:45:47;1.05;;;0.85;;
37495;SDS011;23346;52.088;4.746;2022-07-23T07:48:13;3.58;;;1.02;;
37495;SDS011;23346;52.088;4.746;2022-07-23T07:50:39;3.42;;;0.90;;
37495;SDS011;23346;52.088;4.746;2022-07-23T07:53:05;4.80;;;1.02;;
37495;SDS011;23346;52.088;4.746;2022-07-23T07:55:31;3.72;;;1.10;;
37495;SDS011;23346;52.088;4.746;2022-07-23T07:57:57;4.70;;;1.00;;
37495;SDS011;23346;52.088;4.746;2022-07-23T08:00:23;4.68;;;1.10;;
37495;SDS011;23346;52.088;4.746;2022-07-23T08:02:50;4.63;;;1.10;;
37495;SDS011;23346;52.088;4.746;2022-07-23T08:05:20;2.63;;;0.90;;
37495;SDS011;23346;52.088;4.746;2022-07-23T08:07:46;5.80;;;1.10;;
37495;SDS011;23346;52.088;4.746;2022-07-23T08:10:13;7.45;;;1.27;;
37495;SDS011;23346;52.088;4.746;2022-07-23T08:12:43;6.28;;;0.98;;
37495;SDS011;23346;52.088;4.746;2022-07-23T08:15:10;2.70;;;1.13;;
37495;SDS011;23346;52.088;4.746;2022-07-23T08:17:36;0.80;;;0.80;;
37495;SDS011;23346;52.088;4.746;2022-07-23T08:20:02;3.03;;;1.00;;
37495;SDS011;23346;52.088;4.746;2022-07-23T08:22:45;5.50;;;1.02;;
37495;SDS011;23346;52.088;4.746;2022-07-23T08:25:11;5.47;;;1.23;;
37495;SDS011;23346;52.088;4.746;2022-07-23T08:27:37;4.07;;;1.00;;
37495;SDS011;23346;52.088;4.746;2022-07-23T08:30:03;1.80;;;0.90;;
37495;SDS011;23346;52.088;4.746;2022-07-23T08:32:29;4.00;;;0.98;;
37495;SDS011;23346;52.088;4.746;2022-07-23T08:34:55;5.13;;;0.98;;
37495;SDS011;23346;52.088;4.746;2022-07-23T08:37:21;4.97;;;0.80;;
37495;SDS011;23346;52.088;4.746;2022-07-23T08:39:47;4.43;;;0.90;;
37495;SDS011;23346;52.088;4.746;2022-07-23T08:42:13;2.40;;;0.85;;
37495;SDS011;23346;52.088;4.746;2022-07-23T08:44:44;1.83;;;0.77;;
37495;SDS011;23346;52.088;4.746;2022-07-23T08:47:11;3.63;;;1.10;;
37495;SDS011;23346;52.088;4.746;2022-07-23T08:49:38;3.10;;;0.63;;
37495;SDS011;23346;52.088;4.746;2022-07-23T08:52:04;3.13;;;1.00;;
37495;SDS011;23346;52.088;4.746;2022-07-23T08:54:31;4.20;;;1.13;;
37495;SDS011;23346;52.088;4.746;2022-07-23T08:56:57;3.40;;;0.82;;
37495;SDS011;23346;52.088;4.746;2022-07-23T08:59:23;3.38;;;0.82;;
37495;SDS011;23346;52.088;4.746;2022-07-23T09:01:51;4.25;;;1.23;;
37495;SDS011;23346;52.088;4.746;2022-07-23T09:04:17;3.80;;;1.23;;
37495;SDS011;23346;52.088;4.746;2022-07-23T09:06:43;4.13;;;1.08;;
37495;SDS011;23346;52.088;4.746;2022-07-23T09:09:17;3.00;;;1.00;;
37495;SDS011;23346;52.088;4.746;2022-07-23T09:11:47;3.00;;;1.10;;
37495;SDS011;23346;52.088;4.746;2022-07-23T09:14:13;2.95;;;1.17;;
37495;SDS011;23346;52.088;4.746;2022-07-23T09:16:39;2.28;;;1.05;;
37495;SDS011;23346;52.088;4.746;2022-07-23T09:19:06;4.35;;;1.20;;
37495;SDS011;23346;52.088;4.746;2022-07-23T09:21:33;3.92;;;0.95;;
37495;SDS011;23346;52.088;4.746;2022-07-23T09:24:00;2.42;;;1.00;;
37495;SDS011;23346;52.088;4.746;2022-07-23T09:28:56;2.47;;;1.20;;
37495;SDS011;23346;52.088;4.746;2022-07-23T09:31:22;4.18;;;1.10;;
37495;SDS011;23346;52.088;4.746;2022-07-23T09:33:49;2.25;;;1.17;;
37495;SDS011;23346;52.088;4.746;2022-07-23T09:36:15;4.68;;;1.23;;
37495;SDS011;23346;52.088;4.746;2022-07-23T09:38:50;4.97;;;1.10;;
37495;SDS011;23346;52.088;4.746;2022-07-23T09:41:16;2.45;;;1.20;;
37495;SDS011;23346;52.088;4.746;2022-07-23T09:43:42;2.60;;;1.00;;
37495;SDS011;23346;52.088;4.746;2022-07-23T09:46:22;5.18;;;1.00;;
37495;SDS011;23346;52.088;4.746;2022-07-23T09:48:49;3.33;;;1.67;;
37495;SDS011;23346;52.088;4.746;2022-07-23T09:51:16;2.28;;;1.13;;
37495;SDS011;23346;52.088;4.746;2022-07-23T09:53:48;3.60;;;1.10;;
37495;SDS011;23346;52.088;4.746;2022-07-23T09:56:14;3.50;;;1.40;;
37495;SDS011;23346;52.088;4.746;2022-07-23T09:58:40;2.83;;;1.20;;
37495;SDS011;23346;52.088;4.746;2022-07-23T10:01:17;4.18;;;1.40;;
37495;SDS011;23346;52.088;4.746;2022-07-23T10:03:44;2.45;;;1.20;;
37495;SDS011;23346;52.088;4.746;2022-07-23T10:06:10;4.00;;;1.30;;
37495;SDS011;23346;52.088;4.746;2022-07-23T10:08:40;3.28;;;1.45;;
37495;SDS011;23346;52.088;4.746;2022-07-23T10:11:07;3.92;;;1.40;;
37495;SDS011;23346;52.088;4.746;2022-07-23T10:13:35;4.05;;;1.52;;
37495;SDS011;23346;52.088;4.746;2022-07-23T10:16:13;3.88;;;1.75;;
37495;SDS011;23346;52.088;4.746;2022-07-23T10:18:39;2.58;;;1.45;;
37495;SDS011;23346;52.088;4.746;2022-07-23T10:21:05;3.97;;;1.50;;
37495;SDS011;23346;52.088;4.746;2022-07-23T10:23:39;6.15;;;1.65;;
37495;SDS011;23346;52.088;4.746;2022-07-23T10:26:10;5.13;;;1.65;;
37495;SDS011;23346;52.088;4.746;2022-07-23T10:34:21;3.92;;;1.65;;
37495;SDS011;23346;52.088;4.746;2022-07-23T10:39:35;6.50;;;1.77;;
37495;SDS011;23346;52.088;4.746;2022-07-23T10:42:11;3.83;;;1.40;;
37495;SDS011;23346;52.088;4.746;2022-07-23T10:44:44;2.75;;;1.65;;
37495;SDS011;23346;52.088;4.746;2022-07-23T10:47:11;2.95;;;1.40;;
37495;SDS011;23346;52.088;4.746;2022-07-23T10:52:40;2.40;;;1.50;;
37495;SDS011;23346;52.088;4.746;2022-07-23T10:57:47;1.83;;;1.30;;
37495;SDS011;23346;52.088;4.746;2022-07-23T11:00:14;2.38;;;1.48;;
37495;SDS011;23346;52.088;4.746;2022-07-23T11:02:42;3.35;;;1.13;;
37495;SDS011;23346;52.088;4.746;2022-07-23T11:05:12;2.97;;;1.20;;
37495;SDS011;23346;52.088;4.746;2022-07-23T11:08:39;3.17;;;1.10;;
37495;SDS011;23346;52.088;4.746;2022-07-23T11:10:37;3.92;;;1.70;;
37495;SDS011;23346;52.088;4.746;2022-07-23T11:37:02;2.63;;;1.05;;
37495;SDS011;23346;52.088;4.746;2022-07-23T11:39:29;1.75;;;0.95;;
37495;SDS011;23346;52.088;4.746;2022-07-23T11:41:55;1.73;;;1.10;;
37495;SDS011;23346;52.088;4.746;2022-07-23T11:44:32;3.15;;;1.30;;
37495;SDS011;23346;52.088;4.746;2022-07-23T11:47:01;2.35;;;1.10;;
37495;SDS011;23346;52.088;4.746;2022-07-23T11:49:27;1.80;;;1.10;;
37495;SDS011;23346;52.088;4.746;2022-07-23T11:52:07;4.45;;;1.67;;
37495;SDS011;23346;52.088;4.746;2022-07-23T11:54:34;3.58;;;1.08;;
37495;SDS011;23346;52.088;4.746;2022-07-23T11:57:01;1.67;;;1.10;;
37495;SDS011;23346;52.088;4.746;2022-07-23T11:59:28;3.17;;;1.27;;
37495;SDS011;23346;52.088;4.746;2022-07-23T12:01:56;3.10;;;1.10;;
37495;SDS011;23346;52.088;4.746;2022-07-23T12:04:23;5.00;;;1.02;;
37495;SDS011;23346;52.088;4.746;2022-07-23T12:06:49;3.22;;;1.42;;
37495;SDS011;23346;52.088;4.746;2022-07-23T12:09:14;2.55;;;1.15;;
37495;SDS011;23346;52.088;4.746;2022-07-23T12:11:56;4.22;;;1.58;;
37495;SDS011;23346;52.088;4.746;2022-07-23T12:14:22;2.13;;;1.58;;
37495;SDS011;23346;52.088;4.746;2022-07-23T12:17:05;3.03;;;1.20;;
37495;SDS011;23346;52.088;4.746;2022-07-23T12:19:32;2.25;;;1.70;;
37495;SDS011;23346;52.088;4.746;2022-07-23T12:21:58;3.97;;;2.00;;
37495;SDS011;23346;52.088;4.746;2022-07-23T12:24:24;3.03;;;1.67;;
37495;SDS011;23346;52.088;4.746;2022-07-23T12:29:36;2.90;;;1.60;;
37495;SDS011;23346;52.088;4.746;2022-07-23T12:32:02;3.78;;;1.17;;
37495;SDS011;23346;52.088;4.746;2022-07-23T12:34:28;3.03;;;1.17;;
37495;SDS011;23346;52.088;4.746;2022-07-23T12:36:54;1.75;;;1.10;;
37495;SDS011;23346;52.088;4.746;2022-07-23T12:39:30;3.20;;;1.10;;
37495;SDS011;23346;52.088;4.746;2022-07-23T12:41:56;2.58;;;0.90;;
37495;SDS011;23346;52.088;4.746;2022-07-23T12:44:22;3.53;;;1.13;;
37495;SDS011;23346;52.088;4.746;2022-07-23T12:46:51;4.20;;;1.25;;
37495;SDS011;23346;52.088;4.746;2022-07-23T12:49:27;1.85;;;1.17;;
37495;SDS011;23346;52.088;4.746;2022-07-23T12:51:53;3.33;;;1.08;;
37495;SDS011;23346;52.088;4.746;2022-07-23T12:54:26;3.30;;;1.17;;
37495;SDS011;23346;52.088;4.746;2022-07-23T12:56:53;5.28;;;1.17;;
37495;SDS011;23346;52.088;4.746;2022-07-23T12:59:19;2.08;;;1.15;;
37495;SDS011;23346;52.088;4.746;2022-07-23T13:01:52;2.17;;;1.05;;
37495;SDS011;23346;52.088;4.746;2022-07-23T13:04:20;4.05;;;1.20;;
37495;SDS011;23346;52.088;4.746;2022-07-23T13:06:47;3.25;;;1.00;;
37495;SDS011;23346;52.088;4.746;2022-07-23T13:09:15;1.92;;;1.15;;
37495;SDS011;23346;52.088;4.746;2022-07-23T13:11:42;4.20;;;1.40;;
37495;SDS011;23346;52.088;4.746;2022-07-23T13:14:08;3.25;;;1.60;;
37495;SDS011;23346;52.088;4.746;2022-07-23T13:16:34;5.72;;;2.03;;
37495;SDS011;23346;52.088;4.746;2022-07-23T13:19:00;1.75;;;0.85;;
37495;SDS011;23346;52.088;4.746;2022-07-23T13:21:27;2.13;;;1.02;;
37495;SDS011;23346;52.088;4.746;2022-07-23T13:23:53;7.05;;;1.20;;
37495;SDS011;23346;52.088;4.746;2022-07-23T13:26:19;3.25;;;1.02;;
37495;SDS011;23346;52.088;4.746;2022-07-23T13:28:46;3.33;;;1.17;;
37495;SDS011;23346;52.088;4.746;2022-07-23T13:31:12;1.75;;;1.20;;
37495;SDS011;23346;52.088;4.746;2022-07-23T13:33:39;3.30;;;1.20;;
37495;SDS011;23346;52.088;4.746;2022-07-23T13:36:05;2.33;;;1.02;;
37495;SDS011;23346;52.088;4.746;2022-07-23T13:38:31;4.15;;;1.35;;
37495;SDS011;23346;52.088;4.746;2022-07-23T13:40:57;3.10;;;1.65;;
37495;SDS011;23346;52.088;4.746;2022-07-23T13:43:24;2.47;;;1.48;;
37495;SDS011;23346;52.088;4.746;2022-07-23T13:45:51;4.35;;;1.33;;
37495;SDS011;23346;52.088;4.746;2022-07-23T13:48:17;5.32;;;1.33;;
37495;SDS011;23346;52.088;4.746;2022-07-23T13:50:44;2.47;;;1.30;;
37495;SDS011;23346;52.088;4.746;2022-07-23T13:53:11;4.78;;;1.40;;
37495;SDS011;23346;52.088;4.746;2022-07-23T13:55:38;2.50;;;1.40;;
37495;SDS011;23346;52.088;4.746;2022-07-23T13:58:04;4.40;;;1.60;;
37495;SDS011;23346;52.088;4.746;2022-07-23T14:00:31;3.28;;;1.80;;
37495;SDS011;23346;52.088;4.746;2022-07-23T14:02:58;3.67;;;1.67;;
37495;SDS011;23346;52.088;4.746;2022-07-23T14:05:24;3.15;;;1.48;;
37495;SDS011;23346;52.088;4.746;2022-07-23T14:07:50;2.97;;;1.90;;
37495;SDS011;23346;52.088;4.746;2022-07-23T14:10:17;3.90;;;1.77;;
37495;SDS011;23346;52.088;4.746;2022-07-23T14:12:44;3.22;;;1.88;;
37495;SDS011;23346;52.088;4.746;2022-07-23T14:15:10;2.55;;;1.70;;
37495;SDS011;23346;52.088;4.746;2022-07-23T14:17:37;1.70;;;1.35;;
37495;SDS011;23346;52.088;4.746;2022-07-23T14:20:03;3.72;;;1.70;;
37495;SDS011;23346;52.088;4.746;2022-07-23T14:22:30;2.40;;;1.92;;
37495;SDS011;23346;52.088;4.746;2022-07-23T14:24:56;2.60;;;1.40;;
37495;SDS011;23346;52.088;4.746;2022-07-23T14:27:26;3.25;;;1.60;;
37495;SDS011;23346;52.088;4.746;2022-07-23T14:29:52;2.17;;;1.50;;
37495;SDS011;23346;52.088;4.746;2022-07-23T14:32:18;2.72;;;1.35;;
37495;SDS011;23346;52.088;4.746;2022-07-23T14:34:44;3.22;;;1.52;;
37495;SDS011;23346;52.088;4.746;2022-07-23T14:37:10;3.78;;;1.50;;
37495;SDS011;23346;52.088;4.746;2022-07-23T14:39:37;2.55;;;1.98;;
37495;SDS011;23346;52.088;4.746;2022-07-23T14:42:03;3.90;;;2.20;;
37495;SDS011;23346;52.088;4.746;2022-07-23T14:44:29;2.42;;;1.63;;
37495;SDS011;23346;52.088;4.746;2022-07-23T14:46:55;3.50;;;1.75;;
37495;SDS011;23346;52.088;4.746;2022-07-23T14:49:21;3.17;;;2.10;;
37495;SDS011;23346;52.088;4.746;2022-07-23T14:51:48;5.25;;;1.58;;
37495;SDS011;23346;52.088;4.746;2022-07-23T14:54:14;3.67;;;1.65;;
37495;SDS011;23346;52.088;4.746;2022-07-23T14:56:40;2.53;;;1.70;;
37495;SDS011;23346;52.088;4.746;2022-07-23T14:59:06;4.15;;;1.50;;
37495;SDS011;23346;52.088;4.746;2022-07-23T15:01:32;4.57;;;1.85;;
37495;SDS011;23346;52.088;4.746;2022-07-23T15:03:59;3.17;;;1.63;;
37495;SDS011;23346;52.088;4.746;2022-07-23T15:06:25;3.40;;;2.03;;
37495;SDS011;23346;52.088;4.746;2022-07-23T15:08:51;4.50;;;1.65;;
37495;SDS011;23346;52.088;4.746;2022-07-23T15:11:17;3.13;;;2.03;;
37495;SDS011;23346;52.088;4.746;2022-07-23T15:13:43;4.90;;;2.10;;
37495;SDS011;23346;52.088;4.746;2022-07-23T15:16:09;4.43;;;2.10;;
37495;SDS011;23346;52.088;4.746;2022-07-23T15:18:35;3.47;;;1.95;;